sensor_id;sensor_type;location;lat;lon;timestamp;temperature;humidity
39099;DHT22;24844;52.380;7.018;2023-04-06T00:00:58;3.40;90.00
39099;DHT22;24844;52.380;7.018;2023-04-06T00:03:24;3.30;90.20
39099;DHT22;24844;52.380;7.018;2023-04-06T00:05:50;3.30;90.50
39099;DHT22;24844;52.380;7.018;2023-04-06T00:08:16;3.30;90.30
39099;DHT22;24844;52.380;7.018;2023-04-06T00:10:42;3.20;91.20
39099;DHT22;24844;52.380;7.018;2023-04-06T00:13:07;3.20;91.90
39099;DHT22;24844;52.380;7.018;2023-04-06T00:15:33;3.10;91.70
39099;DHT22;24844;52.380;7.018;2023-04-06T00:18:00;3.10;91.30
39099;DHT22;24844;52.380;7.018;2023-04-06T00:20:26;3.00;91.40
39099;DHT22;24844;52.380;7.018;2023-04-06T00:22:51;3.00;92.80
39099;DHT22;24844;52.380;7.018;2023-04-06T00:25:17;2.90;92.60
39099;DHT22;24844;52.380;7.018;2023-04-06T00:27:42;3.00;92.50
39099;DHT22;24844;52.380;7.018;2023-04-06T00:30:08;2.90;92.60
39099;DHT22;24844;52.380;7.018;2023-04-06T00:32:35;2.90;92.60
39099;DHT22;24844;52.380;7.018;2023-04-06T00:35:05;2.90;92.60
39099;DHT22;24844;52.380;7.018;2023-04-06T00:37:31;2.80;92.70
39099;DHT22;24844;52.380;7.018;2023-04-06T00:39:57;2.80;93.60
39099;DHT22;24844;52.380;7.018;2023-04-06T00:42:23;2.70;93.90
39099;DHT22;24844;52.380;7.018;2023-04-06T00:44:52;2.70;93.90
39099;DHT22;24844;52.380;7.018;2023-04-06T00:47:18;2.70;93.50
39099;DHT22;24844;52.380;7.018;2023-04-06T00:49:43;2.60;93.50
39099;DHT22;24844;52.380;7.018;2023-04-06T00:52:09;2.60;93.50
39099;DHT22;24844;52.380;7.018;2023-04-06T00:54:34;2.60;93.80
39099;DHT22;24844;52.380;7.018;2023-04-06T00:57:00;2.60;93.90
39099;DHT22;24844;52.380;7.018;2023-04-06T00:59:27;2.60;94.40
39099;DHT22;24844;52.380;7.018;2023-04-06T01:01:52;2.50;94.40
39099;DHT22;24844;52.380;7.018;2023-04-06T01:04:18;2.50;94.60
39099;DHT22;24844;52.380;7.018;2023-04-06T01:06:44;2.50;94.80
39099;DHT22;24844;52.380;7.018;2023-04-06T01:09:10;2.50;94.60
39099;DHT22;24844;52.380;7.018;2023-04-06T01:11:36;2.40;94.80
39099;DHT22;24844;52.380;7.018;2023-04-06T01:14:03;2.40;95.20
39099;DHT22;24844;52.380;7.018;2023-04-06T01:16:28;2.40;95.70
39099;DHT22;24844;52.380;7.018;2023-04-06T01:18:54;2.30;99.90
39099;DHT22;24844;52.380;7.018;2023-04-06T01:21:19;2.20;99.20
39099;DHT22;24844;52.380;7.018;2023-04-06T01:23:45;2.20;99.20
39099;DHT22;24844;52.380;7.018;2023-04-06T01:26:13;2.20;98.50
39099;DHT22;24844;52.380;7.018;2023-04-06T01:28:39;2.00;99.90
39099;DHT22;24844;52.380;7.018;2023-04-06T01:31:07;2.00;99.90
39099;DHT22;24844;52.380;7.018;2023-04-06T01:33:33;2.10;99.90
39099;DHT22;24844;52.380;7.018;2023-04-06T01:35:58;2.10;99.90
39099;DHT22;24844;52.380;7.018;2023-04-06T01:38:25;2.00;99.00
39099;DHT22;24844;52.380;7.018;2023-04-06T01:40:51;2.10;99.90
39099;DHT22;24844;52.380;7.018;2023-04-06T01:43:17;1.90;99.00
39099;DHT22;24844;52.380;7.018;2023-04-06T01:45:43;1.90;99.90
39099;DHT22;24844;52.380;7.018;2023-04-06T01:48:08;1.70;99.90
39099;DHT22;24844;52.380;7.018;2023-04-06T01:50:34;1.80;99.90
39099;DHT22;24844;52.380;7.018;2023-04-06T01:52:59;1.90;99.90
39099;DHT22;24844;52.380;7.018;2023-04-06T01:55:25;1.70;99.90
39099;DHT22;24844;52.380;7.018;2023-04-06T01:57:51;1.50;99.90
39099;DHT22;24844;52.380;7.018;2023-04-06T02:00:17;1.30;99.90
39099;DHT22;24844;52.380;7.018;2023-04-06T02:02:42;1.40;99.90
39099;DHT22;24844;52.380;7.018;2023-04-06T02:05:08;1.50;99.90
39099;DHT22;24844;52.380;7.018;2023-04-06T02:07:34;1.50;99.90
39099;DHT22;24844;52.380;7.018;2023-04-06T02:09:59;1.60;99.90
39099;DHT22;24844;52.380;7.018;2023-04-06T02:12:25;1.60;99.90
39099;DHT22;24844;52.380;7.018;2023-04-06T02:14:50;1.60;99.90
39099;DHT22;24844;52.380;7.018;2023-04-06T02:17:16;1.60;99.90
39099;DHT22;24844;52.380;7.018;2023-04-06T02:19:42;1.50;99.90
39099;DHT22;24844;52.380;7.018;2023-04-06T02:22:07;1.50;99.90
39099;DHT22;24844;52.380;7.018;2023-04-06T02:24:33;1.50;99.90
39099;DHT22;24844;52.380;7.018;2023-04-06T02:26:58;1.50;99.90
39099;DHT22;24844;52.380;7.018;2023-04-06T02:29:25;1.50;99.90
39099;DHT22;24844;52.380;7.018;2023-04-06T02:31:50;1.40;99.90
39099;DHT22;24844;52.380;7.018;2023-04-06T02:34:16;1.40;99.90
39099;DHT22;24844;52.380;7.018;2023-04-06T02:36:45;1.40;99.90
39099;DHT22;24844;52.380;7.018;2023-04-06T02:39:10;1.30;99.90
39099;DHT22;24844;52.380;7.018;2023-04-06T02:41:36;1.10;99.90
39099;DHT22;24844;52.380;7.018;2023-04-06T02:44:02;1.10;99.90
39099;DHT22;24844;52.380;7.018;2023-04-06T02:46:28;1.20;99.90
39099;DHT22;24844;52.380;7.018;2023-04-06T02:48:54;1.30;99.90
39099;DHT22;24844;52.380;7.018;2023-04-06T02:51:20;1.30;99.90
39099;DHT22;24844;52.380;7.018;2023-04-06T02:53:46;1.20;99.90
39099;DHT22;24844;52.380;7.018;2023-04-06T02:56:11;0.90;99.90
39099;DHT22;24844;52.380;7.018;2023-04-06T02:58:37;0.80;99.90
39099;DHT22;24844;52.380;7.018;2023-04-06T03:01:03;1.00;99.90
39099;DHT22;24844;52.380;7.018;2023-04-06T03:03:29;1.10;99.90
39099;DHT22;24844;52.380;7.018;2023-04-06T03:05:55;1.10;99.90
39099;DHT22;24844;52.380;7.018;2023-04-06T03:08:23;1.10;99.90
39099;DHT22;24844;52.380;7.018;2023-04-06T03:10:49;1.10;99.90
39099;DHT22;24844;52.380;7.018;2023-04-06T03:13:15;1.10;99.90
39099;DHT22;24844;52.380;7.018;2023-04-06T03:15:40;0.70;99.90
39099;DHT22;24844;52.380;7.018;2023-04-06T03:18:06;0.80;99.90
39099;DHT22;24844;52.380;7.018;2023-04-06T03:20:32;0.70;99.90
39099;DHT22;24844;52.380;7.018;2023-04-06T03:22:57;0.60;99.90
39099;DHT22;24844;52.380;7.018;2023-04-06T03:25:23;0.50;99.90
39099;DHT22;24844;52.380;7.018;2023-04-06T03:27:49;0.60;99.90
39099;DHT22;24844;52.380;7.018;2023-04-06T03:30:14;0.80;99.90
39099;DHT22;24844;52.380;7.018;2023-04-06T03:32:45;0.80;99.90
39099;DHT22;24844;52.380;7.018;2023-04-06T03:35:11;0.90;99.90
39099;DHT22;24844;52.380;7.018;2023-04-06T03:37:36;0.90;99.90
39099;DHT22;24844;52.380;7.018;2023-04-06T03:40:02;0.80;99.90
39099;DHT22;24844;52.380;7.018;2023-04-06T03:42:28;0.90;99.90
39099;DHT22;24844;52.380;7.018;2023-04-06T03:44:54;1.00;99.90
39099;DHT22;24844;52.380;7.018;2023-04-06T03:47:19;0.90;99.90
39099;DHT22;24844;52.380;7.018;2023-04-06T03:49:45;0.50;99.90
39099;DHT22;24844;52.380;7.018;2023-04-06T03:52:11;0.40;99.90
39099;DHT22;24844;52.380;7.018;2023-04-06T03:54:36;0.40;99.90
39099;DHT22;24844;52.380;7.018;2023-04-06T03:57:02;0.60;99.90
39099;DHT22;24844;52.380;7.018;2023-04-06T03:59:27;0.60;99.90
39099;DHT22;24844;52.380;7.018;2023-04-06T04:01:53;0.70;99.90
39099;DHT22;24844;52.380;7.018;2023-04-06T04:04:18;0.70;99.90
39099;DHT22;24844;52.380;7.018;2023-04-06T04:06:44;0.70;99.90
39099;DHT22;24844;52.380;7.018;2023-04-06T04:09:10;0.70;99.90
39099;DHT22;24844;52.380;7.018;2023-04-06T04:11:35;0.70;99.90
39099;DHT22;24844;52.380;7.018;2023-04-06T04:14:01;0.80;99.90
39099;DHT22;24844;52.380;7.018;2023-04-06T04:16:27;0.70;99.90
39099;DHT22;24844;52.380;7.018;2023-04-06T04:18:52;0.70;99.90
39099;DHT22;24844;52.380;7.018;2023-04-06T04:21:18;0.70;99.90
39099;DHT22;24844;52.380;7.018;2023-04-06T04:23:43;0.60;99.90
39099;DHT22;24844;52.380;7.018;2023-04-06T04:26:09;0.50;99.90
39099;DHT22;24844;52.380;7.018;2023-04-06T04:28:34;0.60;99.90
39099;DHT22;24844;52.380;7.018;2023-04-06T04:31:00;0.70;99.90
39099;DHT22;24844;52.380;7.018;2023-04-06T04:33:25;0.40;99.90
39099;DHT22;24844;52.380;7.018;2023-04-06T04:35:51;0.40;99.90
39099;DHT22;24844;52.380;7.018;2023-04-06T04:38:17;0.60;99.90
39099;DHT22;24844;52.380;7.018;2023-04-06T04:40:42;0.40;99.90
39099;DHT22;24844;52.380;7.018;2023-04-06T04:43:08;0.50;99.90
39099;DHT22;24844;52.380;7.018;2023-04-06T04:45:34;0.50;99.90
39099;DHT22;24844;52.380;7.018;2023-04-06T04:48:00;0.50;99.90
39099;DHT22;24844;52.380;7.018;2023-04-06T04:50:25;0.40;99.90
39099;DHT22;24844;52.380;7.018;2023-04-06T04:52:51;0.00;99.90
39099;DHT22;24844;52.380;7.018;2023-04-06T04:55:16;0.10;99.90
39099;DHT22;24844;52.380;7.018;2023-04-06T04:57:43;0.30;99.90
39099;DHT22;24844;52.380;7.018;2023-04-06T05:00:09;0.30;99.90
39099;DHT22;24844;52.380;7.018;2023-04-06T05:02:35;0.10;99.90
39099;DHT22;24844;52.380;7.018;2023-04-06T05:05:00;0.10;99.90
39099;DHT22;24844;52.380;7.018;2023-04-06T05:07:26;0.30;99.90
39099;DHT22;24844;52.380;7.018;2023-04-06T05:09:52;0.40;99.90
39099;DHT22;24844;52.380;7.018;2023-04-06T05:12:18;0.40;99.90
39099;DHT22;24844;52.380;7.018;2023-04-06T05:14:44;0.60;99.90
39099;DHT22;24844;52.380;7.018;2023-04-06T05:17:10;0.60;99.90
39099;DHT22;24844;52.380;7.018;2023-04-06T05:19:36;0.70;99.90
39099;DHT22;24844;52.380;7.018;2023-04-06T05:22:01;0.70;99.90
39099;DHT22;24844;52.380;7.018;2023-04-06T05:24:27;0.50;99.90
39099;DHT22;24844;52.380;7.018;2023-04-06T05:26:53;0.50;99.90
39099;DHT22;24844;52.380;7.018;2023-04-06T05:29:18;0.60;99.90
39099;DHT22;24844;52.380;7.018;2023-04-06T05:31:45;0.90;99.90
39099;DHT22;24844;52.380;7.018;2023-04-06T05:34:10;1.10;99.90
39099;DHT22;24844;52.380;7.018;2023-04-06T05:36:38;1.20;99.90
39099;DHT22;24844;52.380;7.018;2023-04-06T05:39:03;1.30;99.90
39099;DHT22;24844;52.380;7.018;2023-04-06T05:41:29;1.40;99.90
39099;DHT22;24844;52.380;7.018;2023-04-06T05:43:55;1.30;99.90
39099;DHT22;24844;52.380;7.018;2023-04-06T05:46:21;1.20;99.90
39099;DHT22;24844;52.380;7.018;2023-04-06T05:48:46;1.40;99.90
39099;DHT22;24844;52.380;7.018;2023-04-06T05:51:12;1.40;99.90
39099;DHT22;24844;52.380;7.018;2023-04-06T05:53:37;1.40;99.90
39099;DHT22;24844;52.380;7.018;2023-04-06T05:56:04;1.40;99.90
39099;DHT22;24844;52.380;7.018;2023-04-06T05:58:30;1.30;99.90
39099;DHT22;24844;52.380;7.018;2023-04-06T06:01:02;1.40;99.90
39099;DHT22;24844;52.380;7.018;2023-04-06T06:03:28;1.60;99.90
39099;DHT22;24844;52.380;7.018;2023-04-06T06:06:00;1.60;99.90
39099;DHT22;24844;52.380;7.018;2023-04-06T06:08:25;1.60;99.90
39099;DHT22;24844;52.380;7.018;2023-04-06T06:10:51;1.80;99.90
39099;DHT22;24844;52.380;7.018;2023-04-06T06:13:17;2.00;99.90
39099;DHT22;24844;52.380;7.018;2023-04-06T06:15:42;2.10;99.90
39099;DHT22;24844;52.380;7.018;2023-04-06T06:18:08;1.90;99.90
39099;DHT22;24844;52.380;7.018;2023-04-06T06:20:33;1.80;99.90
39099;DHT22;24844;52.380;7.018;2023-04-06T06:22:59;1.90;99.90
39099;DHT22;24844;52.380;7.018;2023-04-06T06:25:24;1.90;99.90
39099;DHT22;24844;52.380;7.018;2023-04-06T06:27:50;2.00;99.90
39099;DHT22;24844;52.380;7.018;2023-04-06T06:30:16;2.10;99.90
39099;DHT22;24844;52.380;7.018;2023-04-06T06:32:41;2.20;99.90
39099;DHT22;24844;52.380;7.018;2023-04-06T06:35:07;2.50;99.90
39099;DHT22;24844;52.380;7.018;2023-04-06T06:37:33;2.60;99.90
39099;DHT22;24844;52.380;7.018;2023-04-06T06:39:59;2.70;99.90
39099;DHT22;24844;52.380;7.018;2023-04-06T06:42:24;2.70;99.90
39099;DHT22;24844;52.380;7.018;2023-04-06T06:44:51;2.70;99.90
39099;DHT22;24844;52.380;7.018;2023-04-06T06:47:17;2.80;99.90
39099;DHT22;24844;52.380;7.018;2023-04-06T06:49:42;2.80;99.90
39099;DHT22;24844;52.380;7.018;2023-04-06T06:52:08;2.90;99.90
39099;DHT22;24844;52.380;7.018;2023-04-06T06:54:33;3.00;99.90
39099;DHT22;24844;52.380;7.018;2023-04-06T06:56:59;3.10;99.90
39099;DHT22;24844;52.380;7.018;2023-04-06T06:59:25;3.50;99.90
39099;DHT22;24844;52.380;7.018;2023-04-06T07:01:51;3.50;99.90
39099;DHT22;24844;52.380;7.018;2023-04-06T07:04:16;3.50;99.90
39099;DHT22;24844;52.380;7.018;2023-04-06T07:06:42;3.60;99.90
39099;DHT22;24844;52.380;7.018;2023-04-06T07:09:08;3.70;99.90
39099;DHT22;24844;52.380;7.018;2023-04-06T07:11:33;3.90;99.90
39099;DHT22;24844;52.380;7.018;2023-04-06T07:13:59;3.90;99.90
39099;DHT22;24844;52.380;7.018;2023-04-06T07:16:24;4.10;99.90
39099;DHT22;24844;52.380;7.018;2023-04-06T07:18:50;4.30;99.90
39099;DHT22;24844;52.380;7.018;2023-04-06T07:21:16;4.30;99.90
39099;DHT22;24844;52.380;7.018;2023-04-06T07:23:41;4.60;99.90
39099;DHT22;24844;52.380;7.018;2023-04-06T07:26:07;4.80;99.90
39099;DHT22;24844;52.380;7.018;2023-04-06T07:28:33;4.90;99.90
39099;DHT22;24844;52.380;7.018;2023-04-06T07:30:58;5.10;99.90
39099;DHT22;24844;52.380;7.018;2023-04-06T07:33:24;5.20;99.90
39099;DHT22;24844;52.380;7.018;2023-04-06T07:35:50;5.40;99.90
39099;DHT22;24844;52.380;7.018;2023-04-06T07:38:16;5.50;99.90
39099;DHT22;24844;52.380;7.018;2023-04-06T07:40:42;5.80;99.90
39099;DHT22;24844;52.380;7.018;2023-04-06T07:43:08;6.10;99.90
39099;DHT22;24844;52.380;7.018;2023-04-06T07:45:33;6.40;99.90
39099;DHT22;24844;52.380;7.018;2023-04-06T07:47:59;6.50;99.90
39099;DHT22;24844;52.380;7.018;2023-04-06T07:50:24;7.40;99.90
39099;DHT22;24844;52.380;7.018;2023-04-06T07:52:50;7.40;99.60
39099;DHT22;24844;52.380;7.018;2023-04-06T07:55:16;8.00;99.90
39099;DHT22;24844;52.380;7.018;2023-04-06T07:57:41;8.80;98.40
39099;DHT22;24844;52.380;7.018;2023-04-06T08:00:07;9.20;98.00
39099;DHT22;24844;52.380;7.018;2023-04-06T08:02:34;9.50;95.80
39099;DHT22;24844;52.380;7.018;2023-04-06T08:05:00;9.70;92.70
39099;DHT22;24844;52.380;7.018;2023-04-06T08:07:26;10.60;91.60
39099;DHT22;24844;52.380;7.018;2023-04-06T08:09:52;10.50;88.00
39099;DHT22;24844;52.380;7.018;2023-04-06T08:12:17;10.40;85.90
39099;DHT22;24844;52.380;7.018;2023-04-06T08:14:43;10.50;84.40
39099;DHT22;24844;52.380;7.018;2023-04-06T08:17:09;10.60;81.50
39099;DHT22;24844;52.380;7.018;2023-04-06T08:19:34;10.50;83.30
39099;DHT22;24844;52.380;7.018;2023-04-06T08:22:00;11.10;80.90
39099;DHT22;24844;52.380;7.018;2023-04-06T08:24:26;11.40;79.50
39099;DHT22;24844;52.380;7.018;2023-04-06T08:26:52;11.90;78.10
39099;DHT22;24844;52.380;7.018;2023-04-06T08:29:18;11.60;77.60
39099;DHT22;24844;52.380;7.018;2023-04-06T08:31:43;11.20;77.80
39099;DHT22;24844;52.380;7.018;2023-04-06T08:34:09;11.40;77.60
39099;DHT22;24844;52.380;7.018;2023-04-06T08:36:35;11.60;76.50
39099;DHT22;24844;52.380;7.018;2023-04-06T08:39:01;12.10;74.80
39099;DHT22;24844;52.380;7.018;2023-04-06T08:41:27;12.30;74.00
39099;DHT22;24844;52.380;7.018;2023-04-06T08:44:01;12.80;72.10
39099;DHT22;24844;52.380;7.018;2023-04-06T08:46:28;13.20;71.20
39099;DHT22;24844;52.380;7.018;2023-04-06T08:48:56;14.00;68.60
39099;DHT22;24844;52.380;7.018;2023-04-06T08:51:26;14.40;65.40
39099;DHT22;24844;52.380;7.018;2023-04-06T08:53:53;14.30;62.90
39099;DHT22;24844;52.380;7.018;2023-04-06T08:56:23;14.00;62.90
39099;DHT22;24844;52.380;7.018;2023-04-06T08:58:48;14.00;62.50
39099;DHT22;24844;52.380;7.018;2023-04-06T09:01:17;13.70;62.40
39099;DHT22;24844;52.380;7.018;2023-04-06T09:03:43;13.30;63.10
39099;DHT22;24844;52.380;7.018;2023-04-06T09:06:10;13.60;63.20
39099;DHT22;24844;52.380;7.018;2023-04-06T09:08:39;14.10;62.50
39099;DHT22;24844;52.380;7.018;2023-04-06T09:11:05;14.10;62.10
39099;DHT22;24844;52.380;7.018;2023-04-06T09:13:31;15.00;60.00
39099;DHT22;24844;52.380;7.018;2023-04-06T09:16:05;13.90;59.70
39099;DHT22;24844;52.380;7.018;2023-04-06T09:18:33;13.60;60.70
39099;DHT22;24844;52.380;7.018;2023-04-06T09:21:05;13.90;61.50
39099;DHT22;24844;52.380;7.018;2023-04-06T09:23:31;13.90;60.50
39099;DHT22;24844;52.380;7.018;2023-04-06T09:26:15;14.60;59.80
39099;DHT22;24844;52.380;7.018;2023-04-06T09:28:59;14.80;58.70
39099;DHT22;24844;52.380;7.018;2023-04-06T09:31:32;14.10;57.70
39099;DHT22;24844;52.380;7.018;2023-04-06T09:33:58;13.40;58.60
39099;DHT22;24844;52.380;7.018;2023-04-06T09:36:32;12.80;59.50
39099;DHT22;24844;52.380;7.018;2023-04-06T09:39:02;13.10;61.10
39099;DHT22;24844;52.380;7.018;2023-04-06T09:41:35;13.10;59.50
39099;DHT22;24844;52.380;7.018;2023-04-06T09:44:06;13.10;60.50
39099;DHT22;24844;52.380;7.018;2023-04-06T09:46:39;13.30;59.60
39099;DHT22;24844;52.380;7.018;2023-04-06T09:49:06;13.50;60.20
39099;DHT22;24844;52.380;7.018;2023-04-06T09:51:40;13.30;60.30
39099;DHT22;24844;52.380;7.018;2023-04-06T09:54:07;13.00;60.50
39099;DHT22;24844;52.380;7.018;2023-04-06T09:59:28;12.80;60.90
39099;DHT22;24844;52.380;7.018;2023-04-06T10:01:58;12.60;61.70
39099;DHT22;24844;52.380;7.018;2023-04-06T10:04:43;12.80;61.90
39099;DHT22;24844;52.380;7.018;2023-04-06T10:07:10;13.00;59.80
39099;DHT22;24844;52.380;7.018;2023-04-06T10:09:41;13.80;58.70
39099;DHT22;24844;52.380;7.018;2023-04-06T10:12:09;14.60;58.20
39099;DHT22;24844;52.380;7.018;2023-04-06T10:14:35;14.50;54.90
39099;DHT22;24844;52.380;7.018;2023-04-06T10:17:03;13.50;56.10
39099;DHT22;24844;52.380;7.018;2023-04-06T10:22:02;12.90;56.80
39099;DHT22;24844;52.380;7.018;2023-04-06T10:24:30;13.50;57.10
39099;DHT22;24844;52.380;7.018;2023-04-06T10:27:01;13.00;55.50
39099;DHT22;24844;52.380;7.018;2023-04-06T10:29:27;13.10;56.50
39099;DHT22;24844;52.380;7.018;2023-04-06T10:31:53;13.00;54.90
39099;DHT22;24844;52.380;7.018;2023-04-06T10:34:20;13.10;56.10
39099;DHT22;24844;52.380;7.018;2023-04-06T10:36:46;13.50;55.40
39099;DHT22;24844;52.380;7.018;2023-04-06T10:39:12;14.00;54.50
39099;DHT22;24844;52.380;7.018;2023-04-06T10:41:44;15.00;54.40
39099;DHT22;24844;52.380;7.018;2023-04-06T10:44:20;15.10;52.80
39099;DHT22;24844;52.380;7.018;2023-04-06T10:46:57;14.20;52.80
39099;DHT22;24844;52.380;7.018;2023-04-06T10:49:25;14.80;52.40
39099;DHT22;24844;52.380;7.018;2023-04-06T10:51:55;14.40;52.60
39099;DHT22;24844;52.380;7.018;2023-04-06T10:54:24;13.70;53.10
39099;DHT22;24844;52.380;7.018;2023-04-06T10:56:50;13.80;54.20
39099;DHT22;24844;52.380;7.018;2023-04-06T10:59:20;13.90;52.80
39099;DHT22;24844;52.380;7.018;2023-04-06T11:01:46;13.60;52.40
39099;DHT22;24844;52.380;7.018;2023-04-06T11:04:19;14.00;53.40
39099;DHT22;24844;52.380;7.018;2023-04-06T11:06:49;13.90;52.70
39099;DHT22;24844;52.380;7.018;2023-04-06T11:09:28;14.20;52.30
39099;DHT22;24844;52.380;7.018;2023-04-06T11:11:54;14.40;51.40
39099;DHT22;24844;52.380;7.018;2023-04-06T11:14:21;15.00;52.10
39099;DHT22;24844;52.380;7.018;2023-04-06T11:16:47;14.10;51.90
39099;DHT22;24844;52.380;7.018;2023-04-06T11:19:15;14.60;52.20
39099;DHT22;24844;52.380;7.018;2023-04-06T11:21:45;14.40;53.00
39099;DHT22;24844;52.380;7.018;2023-04-06T11:24:22;14.30;52.00
39099;DHT22;24844;52.380;7.018;2023-04-06T11:26:55;14.00;51.50
39099;DHT22;24844;52.380;7.018;2023-04-06T11:29:26;13.70;49.60
39099;DHT22;24844;52.380;7.018;2023-04-06T11:31:54;13.60;50.90
39099;DHT22;24844;52.380;7.018;2023-04-06T11:34:24;13.40;52.70
39099;DHT22;24844;52.380;7.018;2023-04-06T11:36:55;13.30;52.70
39099;DHT22;24844;52.380;7.018;2023-04-06T11:39:24;13.20;52.60
39099;DHT22;24844;52.380;7.018;2023-04-06T11:41:52;13.20;52.10
39099;DHT22;24844;52.380;7.018;2023-04-06T11:44:34;13.60;53.10
39099;DHT22;24844;52.380;7.018;2023-04-06T11:47:05;13.60;52.10
39099;DHT22;24844;52.380;7.018;2023-04-06T11:49:31;13.60;52.90
39099;DHT22;24844;52.380;7.018;2023-04-06T11:51:58;13.70;51.70
39099;DHT22;24844;52.380;7.018;2023-04-06T11:54:31;13.40;52.20
39099;DHT22;24844;52.380;7.018;2023-04-06T11:56:57;13.30;52.10
39099;DHT22;24844;52.380;7.018;2023-04-06T11:59:22;13.40;54.10
39099;DHT22;24844;52.380;7.018;2023-04-06T12:01:48;13.90;53.50
39099;DHT22;24844;52.380;7.018;2023-04-06T12:04:14;14.10;52.60
39099;DHT22;24844;52.380;7.018;2023-04-06T12:06:40;14.20;51.40
39099;DHT22;24844;52.380;7.018;2023-04-06T12:09:05;14.50;52.30
39099;DHT22;24844;52.380;7.018;2023-04-06T12:11:31;14.10;51.40
39099;DHT22;24844;52.380;7.018;2023-04-06T12:13:56;14.20;51.70
39099;DHT22;24844;52.380;7.018;2023-04-06T12:16:22;14.30;51.40
39099;DHT22;24844;52.380;7.018;2023-04-06T12:18:47;14.40;50.60
39099;DHT22;24844;52.380;7.018;2023-04-06T12:21:13;14.20;51.60
39099;DHT22;24844;52.380;7.018;2023-04-06T12:23:39;14.50;52.00
39099;DHT22;24844;52.380;7.018;2023-04-06T12:26:04;14.30;51.20
39099;DHT22;24844;52.380;7.018;2023-04-06T12:28:30;14.00;52.20
39099;DHT22;24844;52.380;7.018;2023-04-06T12:30:56;14.40;51.70
39099;DHT22;24844;52.380;7.018;2023-04-06T12:33:21;14.30;52.20
39099;DHT22;24844;52.380;7.018;2023-04-06T12:35:47;13.90;52.20
39099;DHT22;24844;52.380;7.018;2023-04-06T12:38:12;14.10;52.40
39099;DHT22;24844;52.380;7.018;2023-04-06T12:40:39;14.10;52.20
39099;DHT22;24844;52.380;7.018;2023-04-06T12:43:05;13.80;52.80
39099;DHT22;24844;52.380;7.018;2023-04-06T12:45:31;13.70;52.70
39099;DHT22;24844;52.380;7.018;2023-04-06T12:47:57;13.60;54.00
39099;DHT22;24844;52.380;7.018;2023-04-06T12:50:23;13.80;54.70
39099;DHT22;24844;52.380;7.018;2023-04-06T12:52:49;13.80;55.10
39099;DHT22;24844;52.380;7.018;2023-04-06T12:55:14;14.10;53.60
39099;DHT22;24844;52.380;7.018;2023-04-06T12:57:40;14.60;53.80
39099;DHT22;24844;52.380;7.018;2023-04-06T13:00:07;15.00;53.10
39099;DHT22;24844;52.380;7.018;2023-04-06T13:02:32;15.20;53.10
39099;DHT22;24844;52.380;7.018;2023-04-06T13:04:58;15.00;54.00
39099;DHT22;24844;52.380;7.018;2023-04-06T13:07:24;15.10;53.20
39099;DHT22;24844;52.380;7.018;2023-04-06T13:09:49;15.50;53.00
39099;DHT22;24844;52.380;7.018;2023-04-06T13:12:16;14.90;53.00
39099;DHT22;24844;52.380;7.018;2023-04-06T13:14:41;14.80;52.90
39099;DHT22;24844;52.380;7.018;2023-04-06T13:17:08;14.20;53.80
39099;DHT22;24844;52.380;7.018;2023-04-06T13:19:33;14.50;55.00
39099;DHT22;24844;52.380;7.018;2023-04-06T13:21:59;14.90;52.90
39099;DHT22;24844;52.380;7.018;2023-04-06T13:24:25;14.90;54.20
39099;DHT22;24844;52.380;7.018;2023-04-06T13:26:50;15.10;54.20
39099;DHT22;24844;52.380;7.018;2023-04-06T13:29:16;15.00;54.70
39099;DHT22;24844;52.380;7.018;2023-04-06T13:31:41;15.40;55.40
39099;DHT22;24844;52.380;7.018;2023-04-06T13:34:07;15.50;54.40
39099;DHT22;24844;52.380;7.018;2023-04-06T13:36:32;15.00;53.60
39099;DHT22;24844;52.380;7.018;2023-04-06T13:38:58;14.90;54.20
39099;DHT22;24844;52.380;7.018;2023-04-06T13:41:25;14.50;54.30
39099;DHT22;24844;52.380;7.018;2023-04-06T13:43:52;15.00;55.30
39099;DHT22;24844;52.380;7.018;2023-04-06T13:46:18;15.20;54.00
39099;DHT22;24844;52.380;7.018;2023-04-06T13:48:44;15.20;53.90
39099;DHT22;24844;52.380;7.018;2023-04-06T13:51:10;15.40;54.30
39099;DHT22;24844;52.380;7.018;2023-04-06T13:53:36;15.20;54.50
39099;DHT22;24844;52.380;7.018;2023-04-06T13:56:01;15.20;55.90
39099;DHT22;24844;52.380;7.018;2023-04-06T13:58:27;15.70;55.00
39099;DHT22;24844;52.380;7.018;2023-04-06T14:00:52;15.80;55.00
39099;DHT22;24844;52.380;7.018;2023-04-06T14:03:18;15.70;55.80
39099;DHT22;24844;52.380;7.018;2023-04-06T14:05:45;15.10;56.70
39099;DHT22;24844;52.380;7.018;2023-04-06T14:08:10;15.00;57.20
39099;DHT22;24844;52.380;7.018;2023-04-06T14:10:40;15.20;57.50
39099;DHT22;24844;52.380;7.018;2023-04-06T14:13:06;15.30;57.50
39099;DHT22;24844;52.380;7.018;2023-04-06T14:15:32;15.40;57.40
39099;DHT22;24844;52.380;7.018;2023-04-06T14:17:57;15.10;57.70
39099;DHT22;24844;52.380;7.018;2023-04-06T14:20:23;14.90;56.90
39099;DHT22;24844;52.380;7.018;2023-04-06T14:22:48;14.90;56.70
39099;DHT22;24844;52.380;7.018;2023-04-06T14:25:15;14.50;56.20
39099;DHT22;24844;52.380;7.018;2023-04-06T14:27:42;14.30;57.80
39099;DHT22;24844;52.380;7.018;2023-04-06T14:30:08;14.60;59.20
39099;DHT22;24844;52.380;7.018;2023-04-06T14:32:34;13.50;57.90
39099;DHT22;24844;52.380;7.018;2023-04-06T14:35:00;13.50;58.70
39099;DHT22;24844;52.380;7.018;2023-04-06T14:37:25;13.60;58.80
39099;DHT22;24844;52.380;7.018;2023-04-06T14:39:51;13.70;58.90
39099;DHT22;24844;52.380;7.018;2023-04-06T14:42:17;14.30;58.80
39099;DHT22;24844;52.380;7.018;2023-04-06T14:44:42;14.40;59.50
39099;DHT22;24844;52.380;7.018;2023-04-06T14:47:10;14.20;59.30
39099;DHT22;24844;52.380;7.018;2023-04-06T14:49:36;13.40;61.40
39099;DHT22;24844;52.380;7.018;2023-04-06T14:52:02;13.10;62.60
39099;DHT22;24844;52.380;7.018;2023-04-06T14:54:28;13.00;63.50
39099;DHT22;24844;52.380;7.018;2023-04-06T14:56:54;12.90;63.70
39099;DHT22;24844;52.380;7.018;2023-04-06T14:59:19;12.50;65.40
39099;DHT22;24844;52.380;7.018;2023-04-06T15:01:45;12.50;66.80
39099;DHT22;24844;52.380;7.018;2023-04-06T15:04:10;12.90;65.60
39099;DHT22;24844;52.380;7.018;2023-04-06T15:06:37;12.10;67.90
39099;DHT22;24844;52.380;7.018;2023-04-06T15:09:02;12.00;68.10
39099;DHT22;24844;52.380;7.018;2023-04-06T15:11:28;12.00;69.40
39099;DHT22;24844;52.380;7.018;2023-04-06T15:13:54;11.90;69.40
39099;DHT22;24844;52.380;7.018;2023-04-06T15:16:19;11.70;69.40
39099;DHT22;24844;52.380;7.018;2023-04-06T15:18:45;11.80;70.00
39099;DHT22;24844;52.380;7.018;2023-04-06T15:21:10;11.60;70.90
39099;DHT22;24844;52.380;7.018;2023-04-06T15:23:36;11.70;72.90
39099;DHT22;24844;52.380;7.018;2023-04-06T15:26:01;11.60;72.50
39099;DHT22;24844;52.380;7.018;2023-04-06T15:28:27;11.80;73.50
39099;DHT22;24844;52.380;7.018;2023-04-06T15:30:54;11.90;76.20
39099;DHT22;24844;52.380;7.018;2023-04-06T15:33:21;11.70;82.30
39099;DHT22;24844;52.380;7.018;2023-04-06T15:35:47;12.00;82.80
39099;DHT22;24844;52.380;7.018;2023-04-06T15:38:13;12.20;83.50
39099;DHT22;24844;52.380;7.018;2023-04-06T15:40:43;12.00;86.00